WetterOnline ( https://www.wetteronline.de )

Wetter aktuell Feldberg Gipfel

Aktuelles Wetter: Feldberg/Schwarzwald (1493m)

6-stündlich | Neueste Meldungen
Ortszeit Temperatur Wetter
Di, 22.10. 14:00 9.2° C wolkenlos
Di, 22.10. 8:00 9.1° C wolkenlos
Di, 22.10. 2:00 8.1° C Nebel
Mo, 21.10. 20:00 8.0° C leichter Regen
Mo, 21.10. 14:00 7.0° C Nebel
Mo, 21.10. 8:00 7.8° C Nebel
Mo, 21.10. 2:00 7.7° C leicht bewölkt
So, 20.10. 20:00 12.7° C leicht bewölkt
Ortszeit Temperatur Wetter
Di, 22.10. 16:00 9.8° C leicht bewölkt
Di, 22.10. 15:30 10.8° C fast wolkenlos
Di, 22.10. 15:20 10.8° C fast wolkenlos
Di, 22.10. 15:10 10.6° C wolkenlos
Di, 22.10. 15:00 10.2° C wolkenlos
Di, 22.10. 14:50 10.2° C wolkenlos
Di, 22.10. 14:30 9.6° C fast wolkenlos
Di, 22.10. 14:00 9.2° C wolkenlos
Di, 22.10. 13:30 10.3° C fast wolkenlos
Di, 22.10. 13:00 10.3° C wolkenlos
Di, 22.10. 12:30 10.5° C fast wolkenlos
Ortszeit Relative Feuchte Sichtweite
Di, 22.10. 14:00 86% 17 km
Di, 22.10. 8:00 83% 40 km
Di, 22.10. 2:00 100% <100 m
Mo, 21.10. 20:00 99% 100 m
Mo, 21.10. 14:00 100% 0.2 km
Mo, 21.10. 8:00 100% <100 m
Mo, 21.10. 2:00 97% 50 km
So, 20.10. 20:00 57% >70 km
Ortszeit Relative Feuchte Sichtweite
Di, 22.10. 16:00 87% 5.0 km
Di, 22.10. 15:30 77% 55 km
Di, 22.10. 15:20 77% -
Di, 22.10. 15:10 77% -
Di, 22.10. 15:00 80% 35 km
Di, 22.10. 14:50 80% -
Di, 22.10. 14:30 82% 5.0 km
Di, 22.10. 14:00 86% 17 km
Di, 22.10. 13:30 81% 40 km
Di, 22.10. 13:00 84% 13 km
Di, 22.10. 12:30 83% 23 km
Ortszeit Niederschlagsmenge Niederschlagsart
Di, 22.10. 14:00 0.0 l/m2 in 6 Std. -
Di, 22.10. 8:00 7 l/m2 in 12 Std. -
Di, 22.10. 2:00 7 l/m2 in 6 Std. Regen
Mo, 21.10. 20:00 5 l/m2 in 12 Std. Regen
Mo, 21.10. 14:00 2 l/m2 in 6 Std. Regen
Mo, 21.10. 8:00 3 l/m2 in 12 Std. Regen
Mo, 21.10. 2:00 0.1 l/m2 in 6 Std. Niederschlag
So, 20.10. 20:00 0.0 l/m2 in 12 Std. -
Ortszeit Niederschlagsmenge Niederschlagsart
Di, 22.10. 16:00 0.0 l/m2 in 1 Std. -
Di, 22.10. 15:30 0.0 l/m2 in 1 Std. -
Di, 22.10. 15:20 keine Meldung -
Di, 22.10. 15:10 keine Meldung -
Di, 22.10. 15:00 0.0 l/m2 in 1 Std. -
Di, 22.10. 14:50 keine Meldung -
Di, 22.10. 14:30 0.0 l/m2 in 1 Std. -
Di, 22.10. 14:00 0.0 l/m2 in 1 Std. -
Di, 22.10. 13:30 0.0 l/m2 in 1 Std. -
Di, 22.10. 13:00 0.0 l/m2 in 1 Std. -
Di, 22.10. 12:30 0.0 l/m2 in 1 Std. -
Ortszeit Stärke Spitze Richtung
km/h Bft. km/h Grad Sektor
Di, 22.10. 14:00 24 4 33 80° O
Di, 22.10. 8:00 14 3 43 110° O
Di, 22.10. 2:00 28 4 43 130° SO
Mo, 21.10. 20:00 22 4 29 120° SO
Mo, 21.10. 14:00 13 3 26 200° S
Mo, 21.10. 8:00 18 3 36 230° SW
Mo, 21.10. 2:00 22 4 61 360° N
So, 20.10. 20:00 11 2 36 60° NO
Ortszeit Stärke Spitze Richtung
km/h Bft. km/h Grad Sektor
Di, 22.10. 16:00 9 2 30 110° O
Di, 22.10. 15:30 20 4 30 100° O
Di, 22.10. 15:20 20 4 - 100° O
Di, 22.10. 15:10 22 4 - 90° O
Di, 22.10. 15:00 28 4 39 90° O
Di, 22.10. 14:50 28 4 - 90° O
Di, 22.10. 14:30 29 5 36 90° O
Di, 22.10. 14:00 24 4 33 80° O
Di, 22.10. 13:30 13 3 20 70° O
Di, 22.10. 13:00 18 3 22 50° NO
Di, 22.10. 12:30 7 2 14 60° NO
Ortszeit Untergrenze Bedeckung Gattung
total tief tief mittel hoch
Di, 22.10. 14:00 - 0/8 0/8 - - -
Di, 22.10. 8:00 - 0/8 0/8 - - -
Di, 22.10. 2:00 <30 m 8/8 0/8 - - -
Mo, 21.10. 20:00 30 m 7/8 7/8 - - -
Mo, 21.10. 14:00 <30 m 7/8 0/8 - - -
Mo, 21.10. 8:00 <30 m 8/8 0/8 - - -
Mo, 21.10. 2:00 2700 m 4/8 2/8 - - -
So, 20.10. 20:00 2700 m 4/8 1/8 - - -
Ortszeit Bedeckungsgrad in Achtel und Wolkenuntergrenze
Di, 22.10. 16:00 1(<30m) 3(12000m)
Di, 22.10. 15:30 1(12000m)
Di, 22.10. 15:20 1(12000m)
Di, 22.10. 15:10 keine Wolken
Di, 22.10. 15:00 keine Wolken
Di, 22.10. 14:50 keine Wolken
Di, 22.10. 14:30 1(<30m)
Di, 22.10. 14:00 keine Wolken
Di, 22.10. 13:30 1(<30m)
Di, 22.10. 13:00 keine Wolken
Di, 22.10. 12:30 1(12000m)
Ortszeit Stationsdruck (hPa) Tendenz (hPa in 3 Std.)
Di, 22.10. 14:00 856 - 0,3
Di, 22.10. 8:00 856 - 0,1
Di, 22.10. 2:00 856 - 0,2
Mo, 21.10. 20:00 855 + 0,7
Mo, 21.10. 14:00 854 + 1,0
Mo, 21.10. 8:00 851 + 1,8
Mo, 21.10. 2:00 848 + 0,7
So, 20.10. 20:00 845 + 0,4
Ortszeit Stationsdruck (hPa) Tendenz (hPa in 3 Std.)
Di, 22.10. 16:00 856 - 1,0
Di, 22.10. 15:30 856 - 1,2
Di, 22.10. 15:20 856 keine Meldung
Di, 22.10. 15:10 855 keine Meldung
Di, 22.10. 15:00 856 - 0,9
Di, 22.10. 14:50 856 keine Meldung
Di, 22.10. 14:30 856 - 1,0
Di, 22.10. 14:00 856 - 0,3
Di, 22.10. 13:30 856 + 0,1
Di, 22.10. 13:00 857 + 0,4
Di, 22.10. 12:30 857 + 0,7
Ortszeit Schneehöhe (cm)
Di, 22.10. 14:00 0
Di, 22.10. 8:00 0
Di, 22.10. 2:00 0
Mo, 21.10. 20:00 0
Mo, 21.10. 14:00 0
Mo, 21.10. 8:00 0
Mo, 21.10. 2:00 0
So, 20.10. 20:00 0
Ortszeit Schneehöhe (cm)
Di, 22.10. 16:00 0
Di, 22.10. 15:30 0
Di, 22.10. 15:20 0
Di, 22.10. 15:10 0
Di, 22.10. 15:00 0
Di, 22.10. 14:50 0
Di, 22.10. 14:30 0
Di, 22.10. 14:00 0
Di, 22.10. 13:30 0
Di, 22.10. 13:00 0
Di, 22.10. 12:30 0
Link zu dieser Seite / Seite empfehlen

Das Wetter in ...